Alfalfa, Louisiana
Current Conditions -  °F | °C
As of 1:53 AM on Friday 19 Dec 2014 (Local Time) from KAEX Reporting Station
Haze Haze  
Wind Chill: 51°   Ceiling: 300
Heat Index: 51°   Visibility: 2.5mi
Dew Point: 50°   Wind: 8mph
Humidity: 96%   Direction: 10°N
Pressure: 30.08"   Gusts: NA
Location:  31.3168°N, 92.7338°W
Report Text: KAEX 190753Z 01007KT 2 1/2SM BR OVC003 11/10 A3008 RMK AO2 SLP192 T01060100
Loading
Personal Weather Stations






























Interactive Weather Map New forecast layout! Learn more

10-Day Weather Forecast

Advertisements
Track Severe Weather on mobile